Huntsville, IL

6:35 PM CDT on July 04, 2015 (GMT -0500)
Huntsville, IL | | Change Station
CLOSE
Current Station
Personal Weather Station
Location: Huntsville, IL
Elevation: 659 ft
Nearby Weather Stations
Active Advisory: Flood Warning

Elev 659 ft 40.19 °N, 90.86 °W | Updated 20 seconds ago

Clear
Clear
85.5 °F
Feels Like 83 °F
N
0.0
Wind Variable Wind from East
Gusts 0.0 mph

Today
High -- | Low -- °F
--% Chance of Precip.
Yesterday
High -- | Low -- °F
Precip. -- in
5:39 AM 8:36 PM
Waning Gibbous, 89% visible
Pressure 29.96 in
Visibility 10.0 miles
Clouds Clear
Heat Index 83 °F
Dew Point 45 °F
Humidity 24%
Rainfall 0.00 in
Snow Depth Not available.
UV 3 out of 12
Pollen 3.70 out of 12
Air Quality Not available.
Flu Activity Not available.
METAR KUIN 042254Z AUTO 00000KT 10SM CLR 27/14 A2998 RMK AO2 SLP145 T02670144 $

More Conditions Fewer Conditions

Pressure 29.96 in
Visibility 10.0 miles
Clouds Clear
Heat Index 83 °F
Dew Point 45 °F
Humidity 24%
Rainfall 0.00 in
Snow Depth Not available.
UV 3 out of 12
Pollen 3.70 out of 12
Air Quality Not available.
Flu Activity Not available.
METAR KUIN 042254Z AUTO 00000KT 10SM CLR 27/14 A2998 RMK AO2 SLP145 T02670144 $

More Conditions Fewer Conditions

10-Day Weather Forecast

×

Almanac

Astronomy

Jul. 04, 2015 Rise Set
Actual Time
Civil Twilight
Nautical Twilight
Astronomical Twilight
Moon
Length of Visible Light
Length of Day
Tomorrow will be .
, % of the Moon is Illuminated

Today's Extremes

State Highs State Lows

Community

WunderPhotos

Upload Photos

1,835,116 photos uploaded!

WunderBlogs® & News

Nearby

Air Quality

  Air Quality AQ Index Pollutant
Not available.

Snow Depth

Station Depth Elevation

Earthquake Activity

City Distance Mag. Time & Date
Minimum magnitude displayed is 2.5.

Coastal Water Temperatures

Place Temperature

Stations

Nearby Weather Stations

Station Location Temp. Windchill Dew Point Humidity Wind Precip. Elev Updated Type
                   
Flood Warning
Statement as of 9:41 AM CDT on July 04, 2015

The Flood Warning continues for
the Illinois River at Beardstown.
* Until further notice.
* At 8 am Saturday the stage was 29 feet.
* Flood stage is 14 feet.
* Major flooding is occurring and major flooding is forecast.
* Forecast... the river will continue to fall to a stage of 28.5 feet
by tomorrow morning.
* Impact... at 30 feet... Hager Slough is overtopped.



                  Fld observed forecast 6am
location stg stg day time sun Mon Tue

Illinois River
Beardstown 14 29.0 Sat 8 am 28.5 27.9 27.4


Lat... Lon 4018 9023 4012 9017 4008 9037 3999 9046
      3999 9058 4015 9043